createdAt,value
2024-01-19T00:00:33.279Z,99093.78
2024-01-19T00:01:35.695Z,99102.38
2024-01-19T00:02:38.025Z,99094.63
2024-01-19T00:03:40.281Z,99093.78
2024-01-19T00:04:42.502Z,99099.84
2024-01-19T00:05:44.903Z,99097.28
2024-01-19T00:06:48.242Z,99095.56
2024-01-19T00:07:50.515Z,99100.72
2024-01-19T00:08:52.866Z,99108.50
2024-01-19T00:09:55.161Z,99111.13
2024-01-19T00:10:57.383Z,99108.47
2024-01-19T00:11:59.629Z,99115.28
2024-01-19T00:13:01.993Z,99119.59
2024-01-19T00:14:04.284Z,99118.69
2024-01-19T00:15:10.340Z,99116.94
2024-01-19T00:16:12.645Z,99127.31
2024-01-19T00:17:14.863Z,99122.25
2024-01-19T00:18:17.371Z,99128.28
2024-01-19T00:19:19.758Z,99129.19
2024-01-19T00:20:22.051Z,99135.25
2024-01-19T00:21:25.134Z,99117.25
2024-01-19T00:22:27.485Z,99131.84
2024-01-19T00:23:29.840Z,99131.00
2024-01-19T00:24:32.129Z,99134.44
2024-01-19T00:25:34.346Z,99136.16
2024-01-19T00:26:36.631Z,99137.03
2024-01-19T00:27:39.128Z,99131.94
2024-01-19T00:28:41.377Z,99137.00
2024-01-19T00:29:43.624Z,99124.94
2024-01-19T00:30:45.894Z,99135.97
2024-01-19T00:31:49.263Z,99133.41
2024-01-19T00:32:51.655Z,99134.31
2024-01-19T00:33:54.067Z,99138.56
2024-01-19T00:34:56.455Z,99135.16
2024-01-19T00:35:58.832Z,99149.78
2024-01-19T00:37:01.059Z,99146.34
2024-01-19T00:38:03.451Z,99150.69
2024-01-19T00:39:06.430Z,99154.09
2024-01-19T00:40:12.989Z,99149.78
2024-01-19T00:41:16.632Z,99159.19
2024-01-19T00:42:18.924Z,99154.97
2024-01-19T00:43:21.115Z,99160.13
2024-01-19T00:44:23.361Z,99158.38
2024-01-19T00:45:25.801Z,99160.06
2024-01-19T00:46:29.036Z,99163.47
2024-01-19T00:47:31.398Z,99167.75
2024-01-19T00:48:33.776Z,99166.03
2024-01-19T00:49:36.124Z,99166.03
2024-01-19T00:50:38.494Z,99171.22
2024-01-19T00:51:40.904Z,99166.09
2024-01-19T00:52:43.100Z,99161.78
2024-01-19T00:53:45.712Z,99169.50
2024-01-19T00:54:47.977Z,99165.16
2024-01-19T00:55:50.340Z,99169.41
2024-01-19T00:56:52.650Z,99172.00
2024-01-19T00:57:54.939Z,99166.84
2024-01-19T00:58:57.135Z,99173.69
2024-01-19T00:59:59.654Z,99168.59
2024-01-19T01:01:02.181Z,99176.28
2024-01-19T01:02:04.890Z,99176.34
2024-01-19T01:03:07.271Z,99166.00
2024-01-19T01:04:09.675Z,99184.00
2024-01-19T01:05:13.101Z,99176.34
2024-01-19T01:06:15.641Z,99180.63
2024-01-19T01:07:17.941Z,99184.94
2024-01-19T01:08:20.244Z,99179.75
2024-01-19T01:09:22.473Z,99189.16
2024-01-19T01:10:24.744Z,99190.88
2024-01-19T01:11:28.813Z,99192.56
2024-01-19T01:12:31.189Z,99182.34
2024-01-19T01:13:33.881Z,99194.31
2024-01-19T01:14:36.157Z,99199.44
2024-01-19T01:15:38.380Z,99194.31
2024-01-19T01:16:40.580Z,99204.63
2024-01-19T01:17:43.073Z,99208.16
2024-01-19T01:18:45.469Z,99208.22
2024-01-19T01:19:50.238Z,99209.13
2024-01-19T01:20:52.693Z,99205.69
2024-01-19T01:21:55.148Z,99216.91
2024-01-19T01:22:57.389Z,99220.34
2024-01-19T01:23:59.752Z,99222.94
2024-01-19T01:25:02.286Z,99215.22
2024-01-19T01:26:04.832Z,99215.28
2024-01-19T01:27:07.076Z,99222.97
2024-01-19T01:28:09.296Z,99223.84
2024-01-19T01:29:11.915Z,99224.69
2024-01-19T01:30:14.200Z,99229.81
2024-01-19T01:31:16.450Z,99226.38
2024-01-19T01:32:18.867Z,99236.69
2024-01-19T01:33:22.005Z,99228.09
2024-01-19T01:34:24.488Z,99237.53
2024-01-19T01:35:26.946Z,99238.44
2024-01-19T01:36:29.315Z,99240.19
2024-01-19T01:37:31.964Z,99252.22
2024-01-19T01:38:34.329Z,99241.03
2024-01-19T01:39:36.678Z,99244.44
2024-01-19T01:40:38.997Z,99251.28
2024-01-19T01:41:45.549Z,99248.72
2024-01-19T01:42:47.928Z,99251.28
2024-01-19T01:43:50.187Z,99255.59
2024-01-19T01:44:52.623Z,99242.72
2024-01-19T01:45:55.057Z,99254.72
2024-01-19T01:46:57.365Z,99260.72
2024-01-19T01:48:00.368Z,99257.25
2024-01-19T01:49:02.945Z,99263.25
2024-01-19T01:50:06.554Z,99269.22
2024-01-19T01:51:10.078Z,99263.28
2024-01-19T01:52:12.521Z,99275.34
2024-01-19T01:53:16.593Z,99269.28
2024-01-19T01:54:19.560Z,99271.09
2024-01-19T01:55:22.452Z,99275.44
2024-01-19T01:56:24.690Z,99274.56
2024-01-19T01:57:27.054Z,99273.66
2024-01-19T02:01:36.422Z,99276.38
2024-01-19T02:02:39.281Z,99272.09
2024-01-19T02:03:42.131Z,99275.56
2024-01-19T02:04:44.338Z,99288.41
2024-01-19T02:05:47.105Z,99278.09
2024-01-19T02:06:49.704Z,99269.50
2024-01-19T02:07:52.212Z,99273.69
2024-01-19T02:08:55.693Z,99281.31
2024-01-19T02:09:58.969Z,99280.50
2024-01-19T02:11:01.248Z,99288.16
2024-01-19T02:12:04.733Z,99284.81
2024-01-19T02:13:07.167Z,99287.44
2024-01-19T02:14:11.574Z,99283.19
2024-01-19T02:15:24.644Z,99283.25
2024-01-19T02:16:26.878Z,99287.53
2024-01-19T02:17:29.197Z,99295.28
2024-01-19T02:18:31.588Z,99289.28
2024-01-19T02:19:36.576Z,99284.13
2024-01-19T02:20:38.984Z,99292.72
2024-01-19T02:21:41.397Z,99288.44
2024-01-19T02:22:44.801Z,99289.31
2024-01-19T02:24:16.738Z,99295.31
2024-01-19T02:25:19.425Z,99289.25
2024-01-19T02:26:23.078Z,99290.88
2024-01-19T02:27:26.385Z,99296.00
2024-01-19T02:28:28.675Z,99295.06
2024-01-19T02:29:31.066Z,99301.00
2024-01-19T02:30:34.682Z,99296.72
2024-01-19T02:31:37.209Z,99289.84
2024-01-19T02:32:39.642Z,99295.84
2024-01-19T02:33:41.992Z,99285.56
2024-01-19T02:34:47.103Z,99297.59
2024-01-19T02:35:49.544Z,99296.78
2024-01-19T02:36:51.980Z,99298.44
2024-01-19T02:37:54.292Z,99299.31
2024-01-19T02:38:56.666Z,99295.94
2024-01-19T02:39:59.187Z,99297.53
2024-01-19T02:41:01.482Z,99300.19
2024-01-19T02:42:03.871Z,99295.94
2024-01-19T02:43:06.152Z,99306.16
2024-01-19T02:44:08.529Z,99298.47
2024-01-19T02:45:10.817Z,99311.38
2024-01-19T02:46:15.703Z,99314.06
2024-01-19T02:47:18.116Z,99311.53
2024-01-19T02:48:20.639Z,99305.53
2024-01-19T02:49:23.040Z,99322.72
2024-01-19T02:50:25.609Z,99310.69
2024-01-19T02:51:27.814Z,99315.78
2024-01-19T02:52:30.161Z,99320.84
2024-01-19T02:53:33.173Z,99326.84
2024-01-19T02:54:35.466Z,99326.84
2024-01-19T02:55:37.668Z,99327.66
2024-01-19T02:56:39.980Z,99334.50
2024-01-19T02:57:42.288Z,99333.59
2024-01-19T02:58:44.616Z,99333.59
2024-01-19T02:59:46.930Z,99340.47
2024-01-19T03:02:13.623Z,99333.53
2024-01-19T03:03:15.984Z,99340.38
2024-01-19T03:04:18.213Z,99341.19
2024-01-19T03:05:20.603Z,99342.91
2024-01-19T03:06:24.685Z,99346.44
2024-01-19T03:07:26.953Z,99346.44
2024-01-19T03:08:29.232Z,99346.41
2024-01-19T03:09:31.483Z,99341.16
2024-01-19T03:10:33.714Z,99348.91
2024-01-19T03:11:36.078Z,99339.47
2024-01-19T03:12:38.370Z,99344.66
2024-01-19T03:13:40.697Z,99342.16
2024-01-19T03:14:42.980Z,99353.34
2024-01-19T03:15:45.223Z,99343.91
2024-01-19T03:16:47.414Z,99331.94
2024-01-19T03:17:49.691Z,99344.88
2024-01-19T03:18:56.085Z,99344.91
2024-01-19T03:19:58.350Z,99345.59
2024-01-19T03:21:00.879Z,99342.16
2024-01-19T03:22:03.104Z,99339.66
2024-01-19T03:23:06.933Z,99344.84
2024-01-19T03:24:09.310Z,99333.75
2024-01-19T03:25:11.620Z,99338.97
2024-01-19T03:26:15.171Z,99339.03
2024-01-19T03:27:17.557Z,99341.72
2024-01-19T03:28:19.831Z,99344.34
2024-01-19T03:29:23.964Z,99339.16
2024-01-19T03:30:26.356Z,99336.56
2024-01-19T03:31:28.590Z,99333.91
2024-01-19T03:32:31.061Z,99337.34
2024-01-19T03:33:33.406Z,99336.44
2024-01-19T03:34:36.307Z,99340.69
2024-01-19T03:35:38.748Z,99339.88
2024-01-19T03:36:40.969Z,99341.47
2024-01-19T03:37:43.173Z,99338.03
2024-01-19T03:38:46.329Z,99331.09
2024-01-19T03:39:48.659Z,99345.72
2024-01-19T03:40:50.960Z,99346.59
2024-01-19T03:41:53.342Z,99338.94
2024-01-19T03:42:55.667Z,99351.88
2024-01-19T03:43:57.915Z,99344.91
2024-01-19T03:45:00.225Z,99343.22
2024-01-19T03:46:02.588Z,99343.13
2024-01-19T03:47:04.890Z,99343.97
2024-01-19T03:48:07.335Z,99340.63
2024-01-19T03:49:09.650Z,99344.84
2024-01-19T03:50:12.120Z,99337.97
2024-01-19T03:51:14.435Z,99341.47
2024-01-19T03:52:17.357Z,99348.34
2024-01-19T03:53:19.706Z,99340.59
2024-01-19T03:54:22.021Z,99338.06
2024-01-19T03:55:24.332Z,99338.81
2024-01-19T03:56:26.696Z,99341.38
2024-01-19T03:57:28.980Z,99338.88
2024-01-19T03:58:31.147Z,99345.84
2024-01-19T03:59:34.146Z,99346.72
2024-01-19T04:00:39.051Z,99347.66
2024-01-19T04:01:41.253Z,99348.44
2024-01-19T04:02:43.692Z,99351.78
2024-01-19T04:03:46.631Z,99353.53
2024-01-19T04:04:49.573Z,99351.88
2024-01-19T04:05:51.996Z,99352.75
2024-01-19T04:06:54.351Z,99352.78
2024-01-19T04:07:56.588Z,99350.97
2024-01-19T04:08:59.018Z,99352.72
2024-01-19T04:10:01.371Z,99352.75
2024-01-19T04:11:03.717Z,99353.69
2024-01-19T04:12:16.694Z,99354.59
2024-01-19T04:13:18.939Z,99358.88
2024-01-19T04:14:21.355Z,99362.31
2024-01-19T04:15:23.707Z,99353.75
2024-01-19T04:16:25.963Z,99354.53
2024-01-19T04:17:28.289Z,99350.22
2024-01-19T04:18:30.871Z,99362.22
2024-01-19T04:19:33.309Z,99356.19
2024-01-19T04:20:35.780Z,99363.75
2024-01-19T04:21:38.116Z,99363.72
2024-01-19T04:22:43.381Z,99361.91
2024-01-19T04:23:48.708Z,99368.69
2024-01-19T04:24:50.965Z,99361.06
2024-01-19T04:25:53.197Z,99371.41
2024-01-19T04:26:55.558Z,99355.19
2024-01-19T04:27:58.232Z,99356.94
2024-01-19T04:29:00.468Z,99359.50
2024-01-19T04:30:03.027Z,99358.53
2024-01-19T04:31:06.576Z,99361.97
2024-01-19T04:32:08.774Z,99368.00
2024-01-19T04:33:11.514Z,99368.94
2024-01-19T04:34:14.078Z,99366.41
2024-01-19T04:35:16.362Z,99359.53
2024-01-19T04:36:19.156Z,99368.97
2024-01-19T04:37:21.917Z,99371.59
2024-01-19T04:38:24.135Z,99371.63
2024-01-19T04:39:26.447Z,99369.88
2024-01-19T04:40:28.698Z,99369.91
2024-01-19T04:41:33.334Z,99363.91
2024-01-19T04:42:35.662Z,99375.13
2024-01-19T04:43:37.926Z,99375.13
2024-01-19T04:44:40.666Z,99370.00
2024-01-19T04:45:42.999Z,99376.84
2024-01-19T04:46:45.292Z,99369.09
2024-01-19T04:47:47.662Z,99376.00
2024-01-19T04:48:50.086Z,99385.31
2024-01-19T04:49:52.594Z,99382.72
2024-01-19T04:50:54.882Z,99377.56
2024-01-19T04:51:57.641Z,99394.69
2024-01-19T04:53:00.329Z,99389.47
2024-01-19T04:54:02.713Z,99389.50
2024-01-19T04:55:05.344Z,99395.56
2024-01-19T04:56:08.221Z,99391.25
2024-01-19T04:57:10.595Z,99386.28
2024-01-19T04:58:12.986Z,99382.75
2024-01-19T04:59:15.481Z,99388.78
2024-01-19T05:00:17.923Z,99391.31
2024-01-19T05:01:20.187Z,99399.06
2024-01-19T05:02:22.579Z,99400.78
2024-01-19T05:03:24.817Z,99399.09
2024-01-19T05:04:27.189Z,99413.63
2024-01-19T05:05:30.513Z,99410.97
2024-01-19T05:06:32.930Z,99416.16
2024-01-19T05:07:35.461Z,99416.22
2024-01-19T05:08:37.747Z,99405.75
2024-01-19T05:09:40.145Z,99409.22
2024-01-19T05:10:42.374Z,99409.16
2024-01-19T05:11:44.622Z,99407.34
2024-01-19T05:12:46.911Z,99419.22
2024-01-19T05:13:49.229Z,99413.97
2024-01-19T05:14:51.773Z,99422.66
2024-01-19T05:15:54.007Z,99430.47
2024-01-19T05:16:56.288Z,99414.19
2024-01-19T05:17:59.133Z,99420.16
2024-01-19T05:19:01.486Z,99424.34
2024-01-19T05:20:04.134Z,99429.63
2024-01-19T05:21:07.380Z,99429.66
2024-01-19T05:22:09.755Z,99433.13
2024-01-19T05:23:11.978Z,99436.53
2024-01-19T05:24:14.217Z,99439.06
2024-01-19T05:25:19.650Z,99437.22
2024-01-19T05:26:22.190Z,99440.59
2024-01-19T05:27:24.510Z,99439.66
2024-01-19T05:28:26.827Z,99445.63
2024-01-19T05:29:29.216Z,99443.88
2024-01-19T05:30:31.482Z,99454.06
2024-01-19T05:31:33.764Z,99452.44
2024-01-19T05:32:35.990Z,99454.88
2024-01-19T05:33:40.357Z,99460.03
2024-01-19T05:34:44.901Z,99458.28
2024-01-19T05:35:47.248Z,99460.03
2024-01-19T05:36:49.560Z,99463.44
2024-01-19T05:37:51.785Z,99465.91
2024-01-19T05:38:54.096Z,99465.84
2024-01-19T05:39:56.442Z,99468.47
2024-01-19T05:41:02.360Z,99476.25
2024-01-19T05:42:04.902Z,99472.84
2024-01-19T05:43:07.140Z,99471.94
2024-01-19T05:44:09.715Z,99478.59
2024-01-19T05:45:11.920Z,99473.38
2024-01-19T05:46:17.267Z,99483.63
2024-01-19T05:47:19.510Z,99484.47
2024-01-19T05:48:23.285Z,99480.19
2024-01-19T05:49:25.666Z,99484.53
2024-01-19T05:50:28.049Z,99487.81
2024-01-19T05:51:30.265Z,99474.84
2024-01-19T05:52:32.654Z,99491.22
2024-01-19T05:53:34.946Z,99496.41
2024-01-19T05:54:37.313Z,99495.63
2024-01-19T05:55:41.191Z,99504.22
2024-01-19T05:56:43.502Z,99500.91
2024-01-19T05:57:45.892Z,99494.91
2024-01-19T05:58:48.119Z,99497.50
2024-01-19T05:59:50.469Z,99504.44
2024-01-19T06:00:52.890Z,99502.50
2024-01-19T06:01:55.250Z,99502.47
2024-01-19T06:02:57.727Z,99505.09
2024-01-19T06:04:00.392Z,99503.47
2024-01-19T06:05:02.787Z,99505.09
2024-01-19T06:06:06.047Z,99510.13
2024-01-19T06:07:08.571Z,99504.03
2024-01-19T06:08:10.844Z,99500.72
2024-01-19T06:09:13.205Z,99514.56
2024-01-19T06:10:15.513Z,99511.94
2024-01-19T06:11:17.733Z,99502.50
2024-01-19T06:12:20.051Z,99512.81
2024-01-19T06:13:22.284Z,99507.66
2024-01-19T06:14:24.724Z,99516.34
2024-01-19T06:15:26.980Z,99511.09
2024-01-19T06:16:29.969Z,99512.69
2024-01-19T06:17:32.238Z,99517.00
2024-01-19T06:18:37.377Z,99529.13
2024-01-19T06:19:42.117Z,99525.75
2024-01-19T06:20:44.547Z,99532.69
2024-01-19T06:21:47.342Z,99530.97
2024-01-19T06:22:49.750Z,99522.38
2024-01-19T06:23:52.011Z,99536.03
2024-01-19T06:24:55.258Z,99540.28
2024-01-19T06:25:57.608Z,99543.69
2024-01-19T06:26:59.978Z,99555.72
2024-01-19T06:28:02.369Z,99549.72
2024-01-19T06:29:04.641Z,99559.09
2024-01-19T06:30:07.814Z,99551.09
2024-01-19T06:31:11.268Z,99555.41
2024-01-19T06:32:14.232Z,99560.53
2024-01-19T06:33:16.622Z,99571.78
2024-01-19T06:34:19.210Z,99568.41
2024-01-19T06:35:21.931Z,99565.56
2024-01-19T06:36:26.375Z,99568.72
2024-01-19T06:37:29.867Z,99571.31
2024-01-19T06:38:32.177Z,99569.72
2024-01-19T06:39:34.512Z,99571.56
2024-01-19T06:40:36.722Z,99568.91
2024-01-19T06:41:45.812Z,99570.47
2024-01-19T06:42:48.261Z,99574.63
2024-01-19T06:43:50.590Z,99578.69
2024-01-19T06:44:52.862Z,99581.38
2024-01-19T06:45:55.257Z,99587.50
2024-01-19T06:46:57.633Z,99585.03
2024-01-19T06:48:00.122Z,99579.81
2024-01-19T06:49:02.501Z,99589.28
2024-01-19T06:50:05.163Z,99590.09
2024-01-19T06:51:07.530Z,99597.00
2024-01-19T06:52:09.757Z,99602.19
2024-01-19T06:53:11.968Z,99604.75
2024-01-19T06:54:14.355Z,99607.25
2024-01-19T06:55:16.828Z,99607.22
2024-01-19T06:56:19.051Z,99610.81
2024-01-19T06:57:21.924Z,99615.09
2024-01-19T06:58:24.143Z,99616.06
2024-01-19T06:59:26.691Z,99618.53
2024-01-19T07:00:29.083Z,99616.81
2024-01-19T07:01:31.475Z,99632.38
2024-01-19T07:02:33.824Z,99627.22
2024-01-19T07:03:36.225Z,99628.13
2024-01-19T07:04:38.631Z,99628.03
2024-01-19T07:05:43.680Z,99630.66
2024-01-19T07:06:46.523Z,99633.22
2024-01-19T07:07:48.872Z,99630.59
2024-01-19T07:08:51.164Z,99632.16
2024-01-19T07:09:53.469Z,99635.63
2024-01-19T07:10:55.636Z,99635.53
2024-01-19T07:11:57.963Z,99641.47
2024-01-19T07:13:00.174Z,99640.72
2024-01-19T07:14:02.902Z,99640.66
2024-01-19T07:15:07.433Z,99649.25
2024-01-19T07:16:09.772Z,99650.84
2024-01-19T07:17:15.303Z,99656.16
2024-01-19T07:18:18.792Z,99655.28
2024-01-19T07:19:21.218Z,99654.41
2024-01-19T07:20:23.557Z,99663.06
2024-01-19T07:21:25.908Z,99666.63
2024-01-19T07:22:28.872Z,99658.84
2024-01-19T07:23:31.966Z,99666.72
2024-01-19T07:24:36.430Z,99670.16
2024-01-19T07:25:39.367Z,99671.97
2024-01-19T07:26:43.009Z,99670.41
2024-01-19T07:27:45.323Z,99664.34
2024-01-19T07:28:47.575Z,99672.91
2024-01-19T07:29:49.986Z,99668.44
2024-01-19T07:30:52.285Z,99670.16
2024-01-19T07:31:55.914Z,99676.41
2024-01-19T07:33:06.528Z,99671.31
2024-01-19T07:34:11.684Z,99674.09
2024-01-19T07:35:14.354Z,99669.00
2024-01-19T07:36:17.095Z,99678.09
2024-01-19T07:37:19.472Z,99680.38
2024-01-19T07:38:21.718Z,99687.94
2024-01-19T07:39:27.489Z,99688.69
2024-01-19T07:40:29.926Z,99688.50
2024-01-19T07:41:32.245Z,99685.72
2024-01-19T07:42:34.578Z,99696.03
2024-01-19T07:43:37.422Z,99685.72
2024-01-19T07:44:39.838Z,99696.06
2024-01-19T07:45:42.103Z,99693.94
2024-01-19T07:46:45.703Z,99693.41
2024-01-19T07:47:48.338Z,99689.47
2024-01-19T07:49:53.853Z,99692.94
2024-01-19T07:50:56.105Z,99699.94
2024-01-19T07:51:58.348Z,99700.13
2024-01-19T07:53:00.626Z,99704.78
2024-01-19T07:54:03.050Z,99710.25
2024-01-19T07:55:05.883Z,99700.88
2024-01-19T07:56:08.133Z,99702.69
2024-01-19T07:57:11.140Z,99712.97
2024-01-19T07:58:13.490Z,99709.41
2024-01-19T07:59:15.810Z,99706.03
2024-01-19T08:00:20.547Z,99707.91
2024-01-19T08:01:22.996Z,99716.53
2024-01-19T08:02:26.316Z,99714.94
2024-01-19T08:03:28.650Z,99721.31
2024-01-19T08:04:33.713Z,99727.94
2024-01-19T08:05:36.069Z,99720.75
2024-01-19T08:06:39.425Z,99728.28
2024-01-19T08:07:41.950Z,99729.75
2024-01-19T08:08:44.293Z,99732.25
2024-01-19T08:09:46.512Z,99732.13
2024-01-19T08:10:48.846Z,99736.25
2024-01-19T08:11:51.298Z,99723.25
2024-01-19T08:12:56.181Z,99728.47
2024-01-19T08:13:58.394Z,99733.84
2024-01-19T08:15:00.946Z,99740.66
2024-01-19T08:16:03.513Z,99746.88
2024-01-19T08:17:06.142Z,99737.38
2024-01-19T08:18:08.648Z,99739.22
2024-01-19T08:19:11.428Z,99741.97
2024-01-19T08:20:13.886Z,99747.81
2024-01-19T08:21:19.237Z,99749.91
2024-01-19T08:22:21.687Z,99738.84
2024-01-19T08:23:24.309Z,99742.56
2024-01-19T08:24:27.452Z,99742.47
2024-01-19T08:25:29.735Z,99747.09
2024-01-19T08:26:32.365Z,99752.16
2024-01-19T08:27:34.747Z,99747.69
2024-01-19T08:28:36.986Z,99753.72
2024-01-19T08:29:40.449Z,99760.03
2024-01-19T08:30:43.549Z,99765.38
2024-01-19T08:31:45.931Z,99760.91
2024-01-19T08:32:48.688Z,99762.41
2024-01-19T08:33:51.401Z,99764.13
2024-01-19T08:34:54.105Z,99761.75
2024-01-19T08:35:56.963Z,99764.28
2024-01-19T08:36:59.440Z,99761.91
2024-01-19T08:38:01.746Z,99761.41
2024-01-19T08:39:04.724Z,99758.81
2024-01-19T08:40:11.960Z,99759.91
2024-01-19T08:41:14.223Z,99754.06
2024-01-19T08:42:16.861Z,99763.59
2024-01-19T08:43:19.377Z,99768.09
2024-01-19T08:44:22.839Z,99764.75
2024-01-19T08:45:25.281Z,99763.19
2024-01-19T08:46:27.510Z,99770.22
2024-01-19T08:47:29.941Z,99770.25
2024-01-19T08:48:32.651Z,99780.50
2024-01-19T08:49:35.027Z,99774.34
2024-01-19T08:50:37.641Z,99778.56
2024-01-19T08:51:40.442Z,99782.00
2024-01-19T08:52:43.184Z,99784.94
2024-01-19T08:53:45.707Z,99790.53
2024-01-19T08:54:48.361Z,99784.50
2024-01-19T08:55:50.713Z,99780.34
2024-01-19T08:56:57.980Z,99782.84
2024-01-19T08:58:01.206Z,99781.03
2024-01-19T08:59:03.694Z,99780.34
2024-01-19T09:00:06.849Z,99778.25
2024-01-19T09:01:16.285Z,99773.44
2024-01-19T09:02:18.668Z,99775.19
2024-01-19T09:03:24.057Z,99776.97
2024-01-19T09:04:26.518Z,99773.75
2024-01-19T09:05:29.187Z,99771.38
2024-01-19T09:06:32.045Z,99782.69
2024-01-19T09:07:34.450Z,99780.94
2024-01-19T09:08:36.868Z,99776.63
2024-01-19T09:09:39.321Z,99775.78
2024-01-19T09:10:41.578Z,99787.28
2024-01-19T09:11:44.076Z,99781.25
2024-01-19T09:12:46.391Z,99785.56
2024-01-19T09:13:48.566Z,99788.25
2024-01-19T09:14:52.888Z,99791.66
2024-01-19T09:15:55.133Z,99783.91
2024-01-19T09:16:57.335Z,99799.31
2024-01-19T09:17:59.633Z,99801.06
2024-01-19T09:19:02.977Z,99785.63
2024-01-19T09:20:06.157Z,99791.72
2024-01-19T09:21:08.834Z,99796.06
2024-01-19T09:22:11.103Z,99790.88
2024-01-19T09:23:13.388Z,99801.25
2024-01-19T09:24:15.564Z,99805.56
2024-01-19T09:25:17.912Z,99810.75
2024-01-19T09:26:20.905Z,99812.47
2024-01-19T09:27:23.152Z,99818.50
2024-01-19T09:28:25.393Z,99816.78
2024-01-19T09:29:27.735Z,99823.69
2024-01-19T09:30:30.042Z,99815.06
2024-01-19T09:31:32.288Z,99827.06
2024-01-19T09:32:34.653Z,99829.59
2024-01-19T09:33:37.146Z,99828.72
2024-01-19T09:34:41.888Z,99833.06
2024-01-19T09:35:44.320Z,99835.66
2024-01-19T09:36:46.614Z,99843.50
2024-01-19T09:37:48.938Z,99844.31
2024-01-19T09:38:51.226Z,99847.84
2024-01-19T09:39:53.479Z,99852.16
2024-01-19T09:41:12.031Z,99852.16
2024-01-19T09:42:28.176Z,99861.59
2024-01-19T09:43:34.559Z,99855.50
2024-01-19T09:44:37.879Z,99871.88
2024-01-19T09:45:44.857Z,99863.28
2024-01-19T09:46:52.990Z,99864.22
2024-01-19T09:48:16.656Z,99865.94
2024-01-19T09:49:24.770Z,99871.09
2024-01-19T09:50:31.826Z,99871.09
2024-01-19T09:51:52.572Z,99870.28
2024-01-19T09:53:00.099Z,99875.47
2024-01-19T09:54:06.311Z,99877.22
2024-01-19T09:55:11.045Z,99876.31
2024-01-19T09:56:13.636Z,99871.97
2024-01-19T09:57:15.867Z,99882.28
2024-01-19T09:58:21.812Z,99882.31
2024-01-19T09:59:24.513Z,99890.00
2024-01-19T10:00:28.337Z,99892.63
2024-01-19T10:01:31.108Z,99894.31
2024-01-19T10:02:34.624Z,99896.97
2024-01-19T10:03:37.449Z,99889.19
2024-01-19T10:04:39.857Z,99896.03
2024-01-19T10:05:42.380Z,99891.88
2024-01-19T10:06:45.407Z,99904.72
2024-01-19T10:07:56.323Z,99906.22
2024-01-19T10:08:59.081Z,99909.69
2024-01-19T10:10:02.387Z,99914.97
2024-01-19T10:11:06.250Z,99914.16
2024-01-19T10:12:08.733Z,99906.47
2024-01-19T10:13:11.747Z,99909.03
2024-01-19T10:14:14.344Z,99906.53
2024-01-19T10:15:17.793Z,99913.44
2024-01-19T10:16:20.024Z,99910.84
2024-01-19T10:17:23.030Z,99916.75
2024-01-19T10:18:25.795Z,99918.53
2024-01-19T10:19:29.070Z,99915.91
2024-01-19T10:20:31.752Z,99920.06
2024-01-19T10:21:34.374Z,99914.25
2024-01-19T10:22:36.708Z,99913.22
2024-01-19T10:23:43.024Z,99912.41
2024-01-19T10:24:59.702Z,99915.16
2024-01-19T10:26:15.861Z,99915.22
2024-01-19T10:27:18.196Z,99927.22
2024-01-19T10:28:31.346Z,99925.50
2024-01-19T10:29:33.669Z,99923.84
2024-01-19T10:30:38.432Z,99920.38
2024-01-19T10:31:42.465Z,99924.53
2024-01-19T10:32:47.283Z,99922.09
2024-01-19T10:33:54.384Z,99920.38
2024-01-19T10:35:20.406Z,99917.78
2024-01-19T10:36:22.793Z,99922.91
2024-01-19T10:37:25.095Z,99929.75
2024-01-19T10:38:27.593Z,99915.97
2024-01-19T10:39:30.475Z,99924.59
2024-01-19T10:40:37.210Z,99915.22
2024-01-19T10:41:39.499Z,99916.94
2024-01-19T10:42:42.913Z,99919.53
2024-01-19T10:43:45.539Z,99929.84
2024-01-19T10:44:47.781Z,99929.69
2024-01-19T10:45:50.100Z,99934.78
2024-01-19T10:46:57.313Z,99934.06
2024-01-19T10:48:01.993Z,99928.94
2024-01-19T10:49:05.405Z,99930.63
2024-01-19T10:50:09.436Z,99934.97
2024-01-19T10:51:11.748Z,99929.00
2024-01-19T10:52:16.139Z,99936.78
2024-01-19T10:53:18.483Z,99933.25
2024-01-19T10:54:26.187Z,99937.59
2024-01-19T10:55:30.731Z,99939.13
2024-01-19T10:56:33.075Z,99939.09
2024-01-19T10:57:35.406Z,99945.94
2024-01-19T10:58:37.675Z,99941.59
2024-01-19T10:59:40.206Z,99942.59
2024-01-19T11:00:43.046Z,99941.78
2024-01-19T11:01:57.109Z,99939.91
2024-01-19T11:03:01.968Z,99944.19
2024-01-19T11:04:06.720Z,99950.13
2024-01-19T11:05:09.139Z,99940.84
2024-01-19T11:06:12.190Z,99942.63
2024-01-19T11:07:14.621Z,99936.59
2024-01-19T11:08:19.446Z,99942.50
2024-01-19T11:09:21.981Z,99943.44
2024-01-19T11:10:26.645Z,99935.75
2024-01-19T11:11:31.563Z,99944.25
2024-01-19T11:12:38.674Z,99944.13
2024-01-19T11:13:44.703Z,99949.44
2024-01-19T11:14:52.571Z,99935.47
2024-01-19T11:15:59.712Z,99953.28
2024-01-19T11:17:01.969Z,99957.56
2024-01-19T11:18:06.905Z,99946.59
2024-01-19T11:19:09.927Z,99953.72
2024-01-19T11:20:12.381Z,99947.56
2024-01-19T11:21:16.441Z,99953.38
2024-01-19T11:22:19.067Z,99956.94
2024-01-19T11:23:21.692Z,99950.94
2024-01-19T11:24:27.208Z,99956.34
2024-01-19T11:25:55.577Z,99957.09
2024-01-19T11:27:06.444Z,99968.50
2024-01-19T11:28:27.982Z,99961.50
2024-01-19T11:29:36.361Z,99959.03
2024-01-19T11:31:13.203Z,99962.38
2024-01-19T11:32:16.074Z,99968.53
2024-01-19T11:33:21.520Z,99962.47
2024-01-19T11:34:46.403Z,99963.97
2024-01-19T11:35:50.032Z,99962.50
2024-01-19T11:36:52.564Z,99962.84
2024-01-19T11:37:54.800Z,99967.72
2024-01-19T11:38:57.718Z,99963.53
2024-01-19T11:39:59.971Z,99963.34
2024-01-19T11:41:02.214Z,99968.41
2024-01-19T11:42:04.613Z,99958.47
2024-01-19T11:43:06.882Z,99967.22
2024-01-19T11:44:41.011Z,99964.41
2024-01-19T11:45:44.099Z,99962.13
2024-01-19T11:46:47.994Z,99964.88
2024-01-19T11:47:50.300Z,99964.94
2024-01-19T11:48:53.361Z,99969.88
2024-01-19T11:49:56.055Z,99970.03
2024-01-19T11:50:58.371Z,99969.22
2024-01-19T11:52:04.805Z,99970.75
2024-01-19T11:53:09.181Z,99959.16
2024-01-19T11:54:12.438Z,99964.31
2024-01-19T11:55:26.714Z,99970.97
2024-01-19T11:56:29.555Z,99962.22
2024-01-19T11:57:32.062Z,99959.44
2024-01-19T11:58:41.822Z,99967.31
2024-01-19T11:59:44.885Z,99957.03
2024-01-19T12:00:48.444Z,99958.97
2024-01-19T12:01:50.988Z,99957.66
2024-01-19T12:02:56.559Z,99963.38
2024-01-19T12:03:59.929Z,99963.50
2024-01-19T12:05:05.097Z,99968.13
2024-01-19T12:06:07.885Z,99961.47
2024-01-19T12:07:10.210Z,99967.53
2024-01-19T12:08:13.075Z,99972.69
2024-01-19T12:09:15.938Z,99972.03
2024-01-19T12:10:21.601Z,99969.47
2024-01-19T12:11:23.998Z,99972.91
2024-01-19T12:12:27.321Z,99982.03
2024-01-19T12:16:30.125Z,99984.06
2024-01-19T12:17:33.110Z,99980.66
2024-01-19T12:18:36.624Z,99980.75
2024-01-19T12:19:38.883Z,99984.13
2024-01-19T12:20:42.875Z,99990.19
2024-01-19T12:21:45.244Z,99985.75
2024-01-19T12:22:53.826Z,99988.91
2024-01-19T12:23:58.509Z,99992.50
2024-01-19T12:25:16.566Z,99989.06
2024-01-19T12:26:25.188Z,99987.16
2024-01-19T12:27:27.591Z,99983.63
2024-01-19T12:28:30.241Z,99990.44
2024-01-19T12:29:32.801Z,99995.84
2024-01-19T12:30:36.780Z,99998.53
2024-01-19T12:31:39.420Z,99996.50
2024-01-19T12:32:41.956Z,99987.13
2024-01-19T12:33:44.257Z,99992.50